Time;durP1;ratioP1;P1;durP2;ratioP2;P2;SDS_P1;SDS_P2;PMS_P1;PMS_P2;Temp;Humidity;BMP_temperature;BMP_pressure;BME280_temperature;BME280_humidity;BME280_pressure;Samples;Min_cycle;Max_cycle;Signal;HPM_P1;HPM_P2
2021/12/01 00:00:29;;;;;;;4.22;2.70;;;6.40;87.40;;;;;;5021871;28;20722;-73
2021/12/01 00:02:57;;;;;;;4.25;2.35;;;6.40;87.50;;;;;;5021353;28;20236;-73
2021/12/01 00:05:28;;;;;;;6.55;2.40;;;6.40;87.40;;;;;;5020668;28;20229;-73
2021/12/01 00:07:56;;;;;;;4.05;2.85;;;6.40;87.40;;;;;;5018579;28;20249;-72
2021/12/01 00:10:27;;;;;;;4.40;2.70;;;6.40;87.50;;;;;;5017994;28;20748;-72
2021/12/01 00:12:55;;;;;;;4.80;3.17;;;6.40;87.50;;;;;;5020044;28;20651;-73
2021/12/01 00:15:24;;;;;;;4.00;2.80;;;6.40;87.50;;;;;;5023285;28;20626;-72
2021/12/01 00:17:52;;;;;;;4.20;2.90;;;6.40;87.50;;;;;;5017729;28;20597;-72
2021/12/01 00:20:21;;;;;;;5.50;2.72;;;6.40;87.40;;;;;;5019470;28;20206;-73
2021/12/01 00:22:50;;;;;;;4.90;3.40;;;6.40;87.40;;;;;;5020238;28;20266;-72
2021/12/01 00:25:22;;;;;;;5.25;3.63;;;6.40;87.40;;;;;;5021295;28;20237;-71
2021/12/01 00:27:50;;;;;;;4.50;3.20;;;6.40;87.50;;;;;;5020953;28;20746;-73
2021/12/01 00:30:19;;;;;;;4.35;3.15;;;6.40;87.50;;;;;;5020290;28;20871;-73
2021/12/01 00:32:49;;;;;;;5.53;3.63;;;6.40;87.50;;;;;;5022080;28;20273;-73
2021/12/01 00:35:17;;;;;;;5.18;3.53;;;6.40;87.50;;;;;;5019247;28;20220;-72
2021/12/01 00:37:45;;;;;;;4.95;3.30;;;6.40;87.50;;;;;;5020529;28;20267;-72
2021/12/01 00:40:14;;;;;;;6.20;3.47;;;6.40;87.50;;;;;;5018436;28;20211;-72
2021/12/01 00:42:43;;;;;;;7.47;3.85;;;6.40;87.60;;;;;;5018690;28;20219;-72
2021/12/01 00:45:16;;;;;;;6.38;3.50;;;6.40;87.60;;;;;;5019500;28;20231;-72
2021/12/01 00:47:46;;;;;;;5.28;3.55;;;6.40;87.50;;;;;;5016181;28;20215;-72
2021/12/01 00:50:22;;;;;;;4.80;3.53;;;6.40;87.50;;;;;;5019826;28;20221;-72
2021/12/01 00:52:51;;;;;;;5.22;3.95;;;6.40;87.60;;;;;;5017150;28;20580;-73
2021/12/01 00:55:19;;;;;;;5.20;3.53;;;6.50;87.50;;;;;;5018655;28;20227;-72
2021/12/01 00:57:50;;;;;;;4.65;3.50;;;6.40;87.50;;;;;;5020869;28;20242;-71
2021/12/01 01:00:20;;;;;;;4.88;3.38;;;6.40;87.60;;;;;;5019602;28;20211;-71
2021/12/01 01:02:48;;;;;;;6.15;3.60;;;6.50;87.60;;;;;;5019727;28;20232;-71
2021/12/01 01:05:18;;;;;;;4.20;3.03;;;6.50;87.60;;;;;;5017711;28;20226;-72
2021/12/01 01:07:46;;;;;;;4.88;3.50;;;6.40;87.60;;;;;;5017241;28;20198;-72
2021/12/01 01:10:29;;;;;;;4.38;2.80;;;6.50;87.60;;;;;;5015512;28;20199;-72
2021/12/01 01:18:36;;;;;;;3.85;2.45;;;6.50;87.60;;;;;;5022078;28;20242;-72
2021/12/01 01:21:07;;;;;;;4.78;2.47;;;6.40;87.50;;;;;;5017742;28;20195;-72
2021/12/01 01:23:36;;;;;;;4.25;2.63;;;6.50;87.50;;;;;;5019573;28;20226;-72
2021/12/01 01:26:06;;;;;;;3.60;2.10;;;6.50;87.50;;;;;;5022498;28;20219;-73
2021/12/01 01:28:35;;;;;;;4.20;2.53;;;6.50;87.50;;;;;;5022647;28;20203;-72
2021/12/01 01:31:04;;;;;;;3.83;2.15;;;6.50;87.50;;;;;;5019269;28;20235;-72
2021/12/01 01:33:32;;;;;;;3.33;1.90;;;6.50;87.40;;;;;;5019083;28;20266;-73
2021/12/01 01:36:00;;;;;;;3.20;1.95;;;6.50;87.40;;;;;;5017512;28;20229;-73
2021/12/01 01:38:31;;;;;;;3.72;2.22;;;6.50;87.50;;;;;;5021126;28;20584;-72
2021/12/01 01:41:00;;;;;;;9.70;2.30;;;6.40;87.40;;;;;;5034410;28;20202;-71
2021/12/01 01:43:29;;;;;;;3.45;2.08;;;6.50;87.40;;;;;;5018486;28;20237;-71
2021/12/01 01:45:57;;;;;;;3.72;2.03;;;6.40;87.40;;;;;;5017454;28;20241;-72
2021/12/01 01:48:30;;;;;;;3.92;1.92;;;6.50;87.50;;;;;;5022923;28;20788;-72
2021/12/01 01:51:00;;;;;;;3.70;2.08;;;6.50;87.50;;;;;;5015271;28;20210;-72
2021/12/01 01:53:30;;;;;;;3.63;2.00;;;6.40;87.40;;;;;;5019711;28;20214;-72
2021/12/01 01:56:01;;;;;;;3.40;2.00;;;6.50;87.30;;;;;;5020082;28;20765;-73
2021/12/01 01:58:31;;;;;;;3.70;2.10;;;6.50;87.30;;;;;;5022153;28;20217;-73
2021/12/01 02:01:07;;;;;;;3.70;1.92;;;6.50;87.20;;;;;;5016872;28;20238;-72
2021/12/01 02:03:38;;;;;;;3.58;2.22;;;6.40;87.30;;;;;;5018591;28;20225;-73
2021/12/01 02:06:07;;;;;;;3.50;2.08;;;6.50;87.40;;;;;;5018437;28;20211;-73
2021/12/01 02:08:40;;;;;;;3.30;1.80;;;6.40;87.30;;;;;;5021553;28;20529;-72
2021/12/01 02:11:10;;;;;;;5.28;2.20;;;6.40;87.30;;;;;;5018146;28;20205;-73
2021/12/01 02:13:39;;;;;;;3.58;1.85;;;6.40;87.40;;;;;;5019057;28;20690;-72
2021/12/01 02:16:07;;;;;;;4.63;1.92;;;6.40;87.50;;;;;;5016583;28;20331;-72
2021/12/01 02:18:40;;;;;;;2.90;1.58;;;6.50;87.50;;;;;;5016081;28;20291;-72
2021/12/01 02:21:12;;;;;;;3.60;1.70;;;6.50;87.40;;;;;;5016159;28;20625;-73
2021/12/01 02:23:42;;;;;;;4.78;1.95;;;6.50;87.30;;;;;;5017121;28;20703;-73
2021/12/01 02:26:11;;;;;;;3.20;1.85;;;6.50;87.20;;;;;;5019785;28;20214;-72
2021/12/01 02:28:42;;;;;;;3.30;1.98;;;6.50;87.30;;;;;;5015101;28;20208;-72
2021/12/01 02:31:10;;;;;;;3.30;2.00;;;6.50;87.20;;;;;;5033506;28;20250;-71
2021/12/01 02:33:39;;;;;;;3.10;1.65;;;6.50;87.30;;;;;;5018584;28;20236;-72
2021/12/01 02:36:11;;;;;;;3.80;2.10;;;6.50;87.20;;;;;;5021396;28;20219;-72
2021/12/01 02:38:41;;;;;;;3.65;2.13;;;6.50;87.10;;;;;;5022674;28;20737;-72
2021/12/01 02:41:09;;;;;;;3.60;2.10;;;6.50;87.10;;;;;;5013029;28;20206;-74
2021/12/01 02:43:37;;;;;;;3.90;2.30;;;6.50;87.20;;;;;;5013108;28;20210;-72
2021/12/01 02:46:05;;;;;;;3.42;2.05;;;6.50;87.10;;;;;;5014648;28;20245;-72
2021/12/01 02:48:41;;;;;;;4.22;1.92;;;6.50;87.20;;;;;;5016391;28;20251;-72
2021/12/01 02:51:11;;;;;;;4.60;2.10;;;6.40;87.20;;;;;;5015112;28;20209;-72
2021/12/01 02:53:41;;;;;;;4.15;2.45;;;6.40;87.10;;;;;;5021666;28;20201;-72
2021/12/01 02:56:09;;;;;;;3.90;2.60;;;6.40;87.20;;;;;;5021209;28;20609;-72
2021/12/01 02:58:40;;;;;;;3.80;2.40;;;6.40;87.20;;;;;;5017517;28;20207;-72
2021/12/01 03:01:10;;;;;;;4.00;2.55;;;6.40;87.20;;;;;;5034477;28;20746;-72
2021/12/01 03:03:39;;;;;;;4.40;2.45;;;6.40;87.10;;;;;;5013712;28;20215;-71
2021/12/01 03:06:08;;;;;;;6.75;2.83;;;6.40;87.10;;;;;;5016127;28;20948;-72
2021/12/01 03:08:40;;;;;;;5.35;2.30;;;6.40;87.30;;;;;;5016899;28;20214;-72
2021/12/01 03:11:08;;;;;;;4.28;2.70;;;6.40;87.30;;;;;;5019094;28;20207;-72
2021/12/01 03:13:36;;;;;;;4.47;2.30;;;6.40;87.30;;;;;;5018118;28;20209;-72
2021/12/01 03:16:04;;;;;;;6.03;2.50;;;6.40;87.20;;;;;;5017243;28;20223;-72
2021/12/01 03:18:32;;;;;;;5.10;2.40;;;6.40;87.20;;;;;;5015457;28;20201;-73
2021/12/01 03:21:01;;;;;;;3.75;2.33;;;6.40;87.10;;;;;;5015447;28;20310;-72
2021/12/01 03:23:29;;;;;;;3.92;2.30;;;6.40;87.30;;;;;;5015269;28;20210;-73
2021/12/01 03:25:59;;;;;;;3.63;2.13;;;6.40;87.10;;;;;;5020360;28;20231;-73
2021/12/01 03:28:27;;;;;;;3.72;2.50;;;6.50;87.10;;;;;;5019327;28;20195;-72
2021/12/01 03:30:55;;;;;;;5.85;2.35;;;6.40;87.20;;;;;;5015486;28;20238;-72
2021/12/01 03:33:24;;;;;;;3.80;2.05;;;6.50;87.20;;;;;;5017815;28;20197;-72
2021/12/01 03:35:53;;;;;;;3.70;2.00;;;6.50;87.20;;;;;;5019741;28;20305;-72
2021/12/01 03:38:25;;;;;;;4.75;2.25;;;6.50;87.20;;;;;;5019967;28;20219;-73
2021/12/01 03:40:56;;;;;;;2.90;1.80;;;6.50;87.10;;;;;;5016485;28;20299;-73
2021/12/01 03:43:26;;;;;;;3.45;2.00;;;6.50;87.20;;;;;;5020446;28;20773;-72
2021/12/01 03:45:55;;;;;;;4.15;2.30;;;6.50;87.10;;;;;;5018237;28;20714;-72
2021/12/01 03:48:23;;;;;;;4.22;2.03;;;6.50;87.10;;;;;;5018853;28;20206;-72
2021/12/01 03:50:54;;;;;;;3.00;1.70;;;6.50;87.00;;;;;;5017578;28;20225;-73
2021/12/01 03:53:23;;;;;;;4.18;2.50;;;6.50;87.00;;;;;;5019422;28;20284;-72
2021/12/01 03:55:52;;;;;;;5.55;2.20;;;6.50;87.00;;;;;;5018826;28;20791;-72
2021/12/01 03:58:20;;;;;;;3.83;2.10;;;6.50;87.00;;;;;;5021255;28;20210;-73
2021/12/01 04:00:50;;;;;;;3.40;1.80;;;6.50;87.10;;;;;;5020181;28;20727;-72
2021/12/01 04:03:18;;;;;;;3.70;2.40;;;6.60;86.90;;;;;;5020049;28;20309;-72
2021/12/01 04:05:47;;;;;;;3.63;2.00;;;6.60;87.00;;;;;;5024569;28;20229;-73
2021/12/01 04:08:15;;;;;;;4.35;3.15;;;6.60;87.00;;;;;;5021845;28;20212;-72
2021/12/01 04:10:43;;;;;;;4.53;2.53;;;6.50;87.00;;;;;;5020472;28;20764;-70
2021/12/01 04:13:11;;;;;;;4.10;2.60;;;6.50;87.00;;;;;;5019599;28;20209;-73
2021/12/01 04:15:40;;;;;;;4.13;2.55;;;6.50;87.10;;;;;;5014891;28;20269;-73
2021/12/01 04:18:10;;;;;;;6.25;2.95;;;6.50;87.00;;;;;;5017538;28;20233;-76
2021/12/01 04:20:38;;;;;;;5.22;2.92;;;6.60;87.10;;;;;;5019317;28;20945;-73
2021/12/01 04:23:06;;;;;;;3.92;2.60;;;6.60;87.10;;;;;;5019451;28;22009;-72
2021/12/01 04:25:34;;;;;;;5.07;3.33;;;6.60;87.10;;;;;;5019721;28;20581;-72
2021/12/01 04:28:03;;;;;;;4.53;2.90;;;6.60;86.90;;;;;;5021448;28;20220;-73
2021/12/01 04:30:31;;;;;;;5.07;2.70;;;6.60;86.90;;;;;;5022229;28;20271;-70
2021/12/01 04:32:58;;;;;;;6.50;3.25;;;6.60;86.90;;;;;;5016839;28;20202;-73
2021/12/01 04:35:28;;;;;;;6.28;3.25;;;6.60;86.90;;;;;;5021695;28;20783;-73
2021/12/01 04:37:57;;;;;;;4.63;3.10;;;6.60;86.90;;;;;;5022744;28;20194;-72
2021/12/01 04:40:26;;;;;;;5.40;3.00;;;6.60;86.90;;;;;;5020970;28;20257;-71
2021/12/01 04:42:54;;;;;;;5.55;2.65;;;6.60;87.00;;;;;;5026215;28;20268;-72
2021/12/01 04:45:25;;;;;;;5.50;3.67;;;6.60;86.90;;;;;;5018655;28;20237;-73
2021/12/01 04:47:55;;;;;;;4.80;2.65;;;6.60;86.90;;;;;;5024052;28;20209;-72
2021/12/01 04:50:25;;;;;;;4.65;2.90;;;6.60;86.90;;;;;;5026775;28;20210;-72
2021/12/01 04:52:58;;;;;;;4.75;2.80;;;6.60;86.90;;;;;;5023470;28;20193;-73
2021/12/01 04:55:26;;;;;;;4.65;2.30;;;6.60;87.00;;;;;;5019227;28;20306;-72
2021/12/01 04:57:54;;;;;;;5.03;2.83;;;6.70;87.00;;;;;;5022640;28;20235;-73
2021/12/01 05:00:27;;;;;;;4.85;2.55;;;6.70;86.70;;;;;;5021659;28;20211;-73
2021/12/01 05:02:55;;;;;;;5.38;2.65;;;6.70;86.80;;;;;;5021116;28;20265;-72
2021/12/01 05:05:30;;;;;;;4.70;2.45;;;6.70;86.90;;;;;;5019141;28;20237;-72
2021/12/01 05:07:59;;;;;;;3.95;2.25;;;6.70;86.90;;;;;;5020759;28;20199;-72
2021/12/01 05:10:27;;;;;;;4.18;2.13;;;6.70;86.90;;;;;;5021790;28;20209;-72
2021/12/01 05:12:55;;;;;;;4.55;2.85;;;6.70;86.80;;;;;;5024447;28;20261;-72
2021/12/01 05:15:24;;;;;;;4.28;2.58;;;6.70;86.70;;;;;;5020713;28;20238;-72
2021/12/01 05:17:52;;;;;;;3.75;2.25;;;6.70;86.80;;;;;;5022202;28;20217;-72
2021/12/01 05:20:20;;;;;;;3.78;2.33;;;6.70;86.90;;;;;;5018145;28;20200;-72
2021/12/01 05:22:48;;;;;;;3.97;2.30;;;6.70;86.80;;;;;;5017809;28;20207;-73
2021/12/01 05:25:17;;;;;;;5.13;2.63;;;6.70;86.80;;;;;;5016371;28;20243;-73
2021/12/01 05:27:45;;;;;;;4.32;2.08;;;6.80;86.80;;;;;;5017657;28;20214;-73
2021/12/01 05:30:13;;;;;;;5.07;2.30;;;6.80;86.70;;;;;;5021620;28;20220;-72
2021/12/01 05:32:41;;;;;;;3.63;2.25;;;6.80;86.80;;;;;;5019084;28;20840;-72
2021/12/01 05:35:09;;;;;;;5.18;2.60;;;6.80;86.80;;;;;;5021027;28;20228;-73
2021/12/01 05:37:37;;;;;;;3.53;2.20;;;6.80;86.70;;;;;;5021275;28;20215;-72
2021/12/01 05:40:06;;;;;;;3.95;2.35;;;6.80;86.80;;;;;;5014086;28;20645;-72
2021/12/01 05:42:36;;;;;;;3.58;2.25;;;6.80;86.60;;;;;;5021706;28;20926;-72
2021/12/01 05:45:04;;;;;;;3.88;2.35;;;6.80;86.60;;;;;;5018734;28;20213;-73
2021/12/01 05:47:32;;;;;;;5.47;2.83;;;6.80;86.60;;;;;;5020824;28;20283;-73
2021/12/01 05:50:00;;;;;;;4.30;2.50;;;6.80;86.60;;;;;;5016910;28;20206;-72
2021/12/01 05:52:28;;;;;;;4.53;2.28;;;6.80;86.70;;;;;;5018254;28;20243;-72
2021/12/01 05:54:56;;;;;;;5.07;2.58;;;6.80;86.60;;;;;;5025498;28;20225;-72
2021/12/01 05:57:24;;;;;;;3.30;1.95;;;6.80;86.60;;;;;;5020923;28;20641;-73
2021/12/01 05:59:54;;;;;;;6.20;2.10;;;6.80;86.60;;;;;;5018776;28;20269;-72
2021/12/01 06:02:22;;;;;;;3.80;2.10;;;6.90;86.50;;;;;;5020085;28;20227;-72
2021/12/01 06:04:50;;;;;;;3.60;2.22;;;6.80;86.30;;;;;;5023437;28;20226;-73
2021/12/01 06:07:17;;;;;;;3.97;2.25;;;6.80;86.50;;;;;;5018474;28;20201;-72
2021/12/01 06:09:46;;;;;;;5.00;1.92;;;6.80;86.50;;;;;;5020560;28;20211;-72
2021/12/01 06:12:14;;;;;;;3.90;1.70;;;6.80;86.60;;;;;;5019539;28;20203;-71
2021/12/01 06:14:43;;;;;;;4.35;2.10;;;6.80;86.40;;;;;;5023294;28;20243;-72
2021/12/01 06:17:15;;;;;;;5.20;2.10;;;6.80;86.50;;;;;;5025124;28;20252;-71
2021/12/01 06:19:43;;;;;;;5.57;1.92;;;6.90;86.30;;;;;;5021513;28;20421;-71
2021/12/01 06:22:11;;;;;;;3.60;2.00;;;6.90;86.40;;;;;;5022228;28;20198;-72
2021/12/01 06:24:39;;;;;;;3.20;1.65;;;6.90;86.30;;;;;;5022010;28;20230;-72
2021/12/01 06:27:07;;;;;;;3.63;2.00;;;7.00;86.20;;;;;;5020753;28;20558;-73
2021/12/01 06:29:36;;;;;;;3.65;1.70;;;6.90;86.10;;;;;;5023109;28;20213;-72
2021/12/01 06:32:05;;;;;;;4.05;2.17;;;7.00;86.30;;;;;;5019878;28;20261;-72
2021/12/01 06:34:34;;;;;;;3.05;1.30;;;7.00;86.20;;;;;;5020697;28;20233;-74
2021/12/01 06:37:02;;;;;;;4.60;1.90;;;7.00;86.20;;;;;;5020722;28;20213;-72
2021/12/01 06:39:30;;;;;;;6.15;2.15;;;6.90;86.10;;;;;;5019473;28;20269;-72
2021/12/01 06:41:58;;;;;;;3.67;1.98;;;7.00;86.30;;;;;;5020410;28;20207;-72
2021/12/01 06:44:30;;;;;;;7.13;2.42;;;7.00;86.20;;;;;;5020041;28;20303;-71
2021/12/01 06:46:58;;;;;;;3.28;1.67;;;7.00;86.00;;;;;;5019188;28;20250;-72
2021/12/01 06:49:26;;;;;;;3.80;1.95;;;7.00;86.10;;;;;;5021080;28;20207;-71
2021/12/01 06:51:55;;;;;;;4.13;1.50;;;7.00;86.30;;;;;;5021714;28;20214;-72
2021/12/01 06:54:23;;;;;;;4.70;1.95;;;7.00;86.30;;;;;;5019307;28;20231;-72
2021/12/01 06:56:51;;;;;;;3.28;1.70;;;7.00;86.20;;;;;;5019718;28;20202;-72
2021/12/01 06:59:19;;;;;;;3.50;1.73;;;7.00;86.10;;;;;;5019431;28;20695;-72
2021/12/01 07:01:47;;;;;;;3.53;1.73;;;7.00;86.00;;;;;;5020742;28;20230;-72
2021/12/01 07:04:15;;;;;;;6.80;1.95;;;7.00;86.10;;;;;;5017872;28;20304;-72
2021/12/01 07:06:43;;;;;;;4.03;1.80;;;7.00;86.20;;;;;;5018699;28;20217;-72
2021/12/01 07:09:18;;;;;;;4.60;2.28;;;7.00;86.20;;;;;;5022663;28;20585;-71
2021/12/01 07:11:47;;;;;;;3.45;1.80;;;7.00;86.30;;;;;;5019868;28;20276;-73
2021/12/01 07:14:15;;;;;;;4.15;1.60;;;7.00;86.30;;;;;;5035327;28;20276;-73
2021/12/01 07:16:43;;;;;;;4.70;2.15;;;7.00;86.30;;;;;;5023656;28;20235;-72
2021/12/01 07:19:11;;;;;;;5.15;2.05;;;7.00;86.20;;;;;;5020480;28;20574;-72
2021/12/01 07:21:39;;;;;;;3.65;2.00;;;7.00;86.10;;;;;;5016545;28;20920;-72
2021/12/01 07:24:08;;;;;;;3.33;1.60;;;7.00;86.10;;;;;;5022981;28;20247;-71
2021/12/01 07:26:38;;;;;;;3.15;1.40;;;7.00;86.10;;;;;;5015832;28;20221;-71
2021/12/01 07:29:06;;;;;;;3.67;1.40;;;7.10;86.10;;;;;;5021919;28;20265;-71
2021/12/01 07:31:35;;;;;;;3.33;1.77;;;7.00;86.10;;;;;;5019184;28;20242;-72
2021/12/01 07:34:03;;;;;;;3.03;1.30;;;7.00;86.00;;;;;;5019367;28;20231;-72
2021/12/01 07:36:31;;;;;;;4.65;1.48;;;7.00;86.10;;;;;;5021750;28;20206;-72
2021/12/01 07:38:59;;;;;;;5.30;1.52;;;7.10;86.10;;;;;;5017211;28;20235;-72
2021/12/01 07:41:28;;;;;;;3.75;2.13;;;7.10;86.10;;;;;;5025427;28;20203;-71
2021/12/01 07:43:57;;;;;;;2.85;1.30;;;7.10;86.10;;;;;;5021090;28;20452;-72
2021/12/01 07:46:25;;;;;;;3.22;1.67;;;7.10;86.10;;;;;;5021024;28;20928;-72
2021/12/01 07:48:53;;;;;;;3.42;1.55;;;7.10;86.10;;;;;;5020028;28;20195;-71
2021/12/01 07:51:21;;;;;;;4.50;1.50;;;7.10;86.00;;;;;;5021738;28;20578;-71
2021/12/01 07:53:49;;;;;;;2.90;1.45;;;7.10;86.00;;;;;;5020684;28;20195;-72
2021/12/01 07:56:17;;;;;;;4.05;1.83;;;7.20;86.00;;;;;;5017958;28;20195;-72
2021/12/01 07:58:45;;;;;;;3.92;1.63;;;7.10;85.90;;;;;;5027006;28;20207;-72
2021/12/01 08:01:14;;;;;;;3.22;1.58;;;7.10;85.90;;;;;;5020017;28;20242;-72
2021/12/01 08:03:43;;;;;;;4.13;1.85;;;7.10;86.00;;;;;;5021153;28;20290;-72
2021/12/01 08:06:11;;;;;;;4.65;1.88;;;7.20;85.90;;;;;;5019247;28;20227;-73
2021/12/01 08:08:39;;;;;;;4.72;1.70;;;7.20;85.90;;;;;;5023747;28;20219;-73
2021/12/01 08:11:07;;;;;;;5.38;1.80;;;7.20;85.90;;;;;;5023548;28;20965;-72
2021/12/01 08:13:35;;;;;;;5.00;1.73;;;7.20;85.90;;;;;;5021492;28;20199;-72
2021/12/01 08:16:03;;;;;;;3.50;1.48;;;7.20;85.80;;;;;;5038388;28;20237;-73
2021/12/01 08:18:32;;;;;;;3.90;2.10;;;7.10;85.90;;;;;;5024014;28;20207;-72
2021/12/01 08:21:00;;;;;;;3.80;1.90;;;7.20;85.90;;;;;;5018342;28;20567;-72
2021/12/01 08:23:29;;;;;;;6.53;1.90;;;7.20;85.90;;;;;;5034898;28;21682;-71
2021/12/01 08:25:57;;;;;;;3.00;1.60;;;7.20;85.90;;;;;;5020049;28;20277;-71
2021/12/01 08:28:25;;;;;;;2.83;1.50;;;7.20;85.90;;;;;;5023293;28;21738;-71
2021/12/01 08:31:07;;;;;;;2.85;1.30;;;7.20;85.90;;;;;;5035761;28;20238;-72
2021/12/01 08:33:48;;;;;;;4.50;1.80;;;7.20;85.70;;;;;;5025137;28;20688;-72
2021/12/01 08:36:24;;;;;;;3.78;1.90;;;7.20;85.80;;;;;;5019836;28;20661;-73
2021/12/01 08:39:08;;;;;;;3.10;1.60;;;7.10;85.90;;;;;;5026113;28;20199;-70
2021/12/01 08:41:38;;;;;;;3.08;1.58;;;7.20;86.00;;;;;;5021211;28;20211;-73
2021/12/01 08:44:13;;;;;;;3.15;1.50;;;7.20;85.90;;;;;;5027094;28;20720;-73
2021/12/01 08:46:49;;;;;;;2.85;1.50;;;7.20;86.00;;;;;;5025300;28;20263;-72
2021/12/01 08:49:19;;;;;;;4.93;2.03;;;7.20;86.00;;;;;;5023502;28;20572;-72
2021/12/01 08:51:54;;;;;;;3.72;1.80;;;7.30;85.90;;;;;;5021169;28;20269;-71
2021/12/01 08:54:34;;;;;;;3.10;1.55;;;7.30;85.80;;;;;;5030544;28;20253;-72
2021/12/01 08:57:04;;;;;;;3.95;1.63;;;7.30;85.70;;;;;;5021058;28;20203;-70
2021/12/01 08:59:33;;;;;;;3.13;1.60;;;7.30;85.80;;;;;;5022592;28;20204;-73
2021/12/01 09:02:17;;;;;;;;;;;;;;;;;;;;;
2021/12/01 09:04:50;;;;;;;3.60;1.83;;;7.30;85.90;;;;;;5022637;28;20594;-71
2021/12/01 09:07:19;;;;;;;2.67;1.40;;;7.30;85.80;;;;;;5023088;28;20225;-72
2021/12/01 09:09:49;;;;;;;4.35;1.50;;;7.30;86.00;;;;;;5028826;28;20278;-71
2021/12/01 09:12:22;;;;;;;3.75;1.67;;;7.30;86.00;;;;;;5028722;28;20332;-72
2021/12/01 09:14:51;;;;;;;4.38;1.52;;;7.30;86.00;;;;;;5019475;28;20936;-71
2021/12/01 09:17:22;;;;;;;3.95;1.75;;;7.30;86.10;;;;;;5021440;28;20242;-73
2021/12/01 09:19:52;;;;;;;3.03;0.90;;;7.40;86.10;;;;;;5026114;28;20215;-71
2021/12/01 09:22:21;;;;;;;4.47;1.48;;;7.40;86.10;;;;;;5018948;28;20234;-72
2021/12/01 09:24:49;;;;;;;3.10;1.30;;;7.40;86.10;;;;;;5019315;28;20226;-73
2021/12/01 09:27:17;;;;;;;3.45;1.10;;;7.40;86.10;;;;;;5021223;28;20314;-70
2021/12/01 09:29:46;;;;;;;5.60;1.50;;;7.50;86.00;;;;;;5016794;28;20211;-70
2021/12/01 09:32:13;;;;;;;3.97;1.23;;;7.50;86.00;;;;;;5014902;28;20239;-70
2021/12/01 09:34:44;;;;;;;3.83;1.38;;;7.50;86.00;;;;;;5019677;28;20278;-71
2021/12/01 09:37:14;;;;;;;3.00;1.20;;;7.50;86.10;;;;;;5024833;28;20564;-70
2021/12/01 09:39:42;;;;;;;3.58;1.35;;;7.60;86.00;;;;;;5028144;28;20208;-72
2021/12/01 09:42:10;;;;;;;3.20;1.40;;;7.60;86.00;;;;;;5022469;28;20207;-72
2021/12/01 09:44:39;;;;;;;2.80;1.20;;;7.60;86.00;;;;;;5025912;28;20238;-72
2021/12/01 09:47:07;;;;;;;3.33;1.40;;;7.60;86.00;;;;;;5025624;28;20243;-73
2021/12/01 09:49:35;;;;;;;4.60;1.13;;;7.60;85.90;;;;;;5025582;28;20698;-72
2021/12/01 09:52:04;;;;;;;3.33;1.30;;;7.70;85.90;;;;;;5027302;28;20210;-72
2021/12/01 09:54:34;;;;;;;5.72;1.27;;;7.70;85.90;;;;;;5024767;28;20220;-72
2021/12/01 09:57:02;;;;;;;2.80;1.10;;;7.70;85.90;;;;;;5024736;28;20206;-72
2021/12/01 09:59:30;;;;;;;3.75;1.13;;;7.70;85.90;;;;;;5026613;28;20204;-72
2021/12/01 10:01:58;;;;;;;3.05;1.20;;;7.70;85.90;;;;;;5019990;28;20236;-72
2021/12/01 10:04:28;;;;;;;3.03;1.17;;;7.70;85.90;;;;;;5016700;28;20236;-72
2021/12/01 10:07:13;;;;;;;2.55;1.00;;;7.70;86.00;;;;;;5018903;28;20693;-72
2021/12/01 10:09:45;;;;;;;4.25;1.00;;;7.70;86.10;;;;;;5023516;28;20243;-72
2021/12/01 10:12:15;;;;;;;2.80;1.00;;;7.80;86.00;;;;;;5018428;28;20207;-72
2021/12/01 10:14:45;;;;;;;3.13;0.98;;;7.80;86.00;;;;;;5021068;28;20229;-72
2021/12/01 10:17:13;;;;;;;3.63;1.23;;;7.80;86.10;;;;;;5025573;28;20236;-72
2021/12/01 10:19:41;;;;;;;3.63;0.95;;;7.80;86.20;;;;;;5016191;28;20667;-71
2021/12/01 10:22:10;;;;;;;3.40;1.13;;;7.80;86.20;;;;;;5025105;28;20681;-72
2021/12/01 10:24:40;;;;;;;4.57;1.45;;;7.80;86.10;;;;;;5022344;28;20482;-72
2021/12/01 10:27:13;;;;;;;2.80;1.10;;;7.80;86.20;;;;;;5022541;28;20740;-71
2021/12/01 10:29:43;;;;;;;3.05;1.40;;;7.90;86.20;;;;;;5016121;28;20208;-72
2021/12/01 10:32:16;;;;;;;3.40;1.08;;;7.80;86.30;;;;;;5014629;28;20743;-71
2021/12/01 10:34:47;;;;;;;3.60;1.02;;;7.80;86.30;;;;;;5022309;28;20281;-71
2021/12/01 10:37:22;;;;;;;3.47;1.20;;;7.90;86.30;;;;;;5019350;28;20201;-71
2021/12/01 10:40:07;;;;;;;7.40;1.98;;;7.90;86.30;;;;;;5018233;28;20204;-71
2021/12/01 10:42:52;;;;;;;3.45;0.88;;;7.90;86.40;;;;;;5019553;28;20204;-71
2021/12/01 10:45:22;;;;;;;5.18;1.15;;;7.90;86.40;;;;;;5016314;28;20576;-71
2021/12/01 10:47:51;;;;;;;5.15;1.20;;;7.90;86.50;;;;;;5021276;28;20219;-71
2021/12/01 10:50:21;;;;;;;3.22;1.00;;;7.90;86.60;;;;;;5023474;28;20689;-71
2021/12/01 10:52:50;;;;;;;2.95;1.00;;;7.90;86.50;;;;;;5023563;28;20286;-73
2021/12/01 10:55:19;;;;;;;2.80;1.00;;;7.90;86.80;;;;;;5026164;28;20231;-72
2021/12/01 10:57:54;;;;;;;2.80;1.10;;;7.90;86.70;;;;;;5023050;28;20819;-71
2021/12/01 11:00:26;;;;;;;3.25;1.10;;;8.00;86.70;;;;;;5018709;28;20462;-72
2021/12/01 11:03:04;;;;;;;3.03;0.90;;;8.00;86.60;;;;;;5017856;28;20208;-73
2021/12/01 11:05:34;;;;;;;2.80;1.05;;;8.10;86.50;;;;;;5020631;28;20239;-72
2021/12/01 11:08:11;;;;;;;3.00;0.87;;;8.10;86.50;;;;;;5016047;28;20219;-72
2021/12/01 11:10:40;;;;;;;2.40;0.80;;;8.20;86.30;;;;;;5018119;28;20455;-72
2021/12/01 11:13:10;;;;;;;2.60;0.80;;;8.10;86.30;;;;;;5020146;28;20207;-70
2021/12/01 11:15:41;;;;;;;2.92;1.17;;;8.20;86.40;;;;;;5015391;28;20482;-71
2021/12/01 11:18:31;;;;;;;4.05;1.10;;;8.30;86.20;;;;;;5018609;28;20669;-71
2021/12/01 11:21:09;;;;;;;2.90;1.00;;;8.30;86.20;;;;;;5021722;28;20704;-71
2021/12/01 11:23:39;;;;;;;2.72;0.80;;;8.30;86.20;;;;;;5020019;28;20548;-71
2021/12/01 11:26:09;;;;;;;4.93;0.90;;;8.30;86.20;;;;;;5018215;28;20298;-71
2021/12/01 11:28:41;;;;;;;2.65;0.90;;;8.30;86.10;;;;;;5015688;28;20207;-71
2021/12/01 11:31:11;;;;;;;2.70;1.07;;;8.40;86.30;;;;;;5019235;28;20600;-71
2021/12/01 11:33:43;;;;;;;2.93;0.60;;;8.50;86.10;;;;;;5020175;28;21110;-71
2021/12/01 11:36:13;;;;;;;4.20;0.73;;;8.50;86.10;;;;;;5023226;28;20956;-71
2021/12/01 11:38:42;;;;;;;2.37;0.57;;;8.50;86.00;;;;;;5021535;28;20449;-71
2021/12/01 11:41:11;;;;;;;2.67;0.70;;;8.50;86.00;;;;;;5018972;28;21037;-70
2021/12/01 11:43:40;;;;;;;2.97;0.80;;;8.60;86.00;;;;;;5019001;28;20458;-71
2021/12/01 11:46:08;;;;;;;2.63;0.60;;;8.60;85.70;;;;;;5020314;28;20266;-70
2021/12/01 11:48:40;;;;;;;2.40;0.70;;;8.60;85.90;;;;;;5024154;28;20263;-71
2021/12/01 11:51:19;;;;;;;2.37;0.60;;;8.60;85.90;;;;;;5019013;28;20466;-71
2021/12/01 11:53:51;;;;;;;2.80;0.63;;;8.60;85.80;;;;;;5022183;28;20504;-71
2021/12/01 11:56:22;;;;;;;2.63;0.90;;;8.60;85.80;;;;;;5022503;28;20859;-71
2021/12/01 11:59:00;;;;;;;2.20;0.53;;;8.70;85.80;;;;;;5022871;28;20510;-71
2021/12/01 12:01:45;;;;;;;2.43;0.63;;;8.70;85.60;;;;;;5022753;28;20478;-71
2021/12/01 12:04:22;;;;;;;2.50;0.73;;;8.70;85.60;;;;;;5023222;28;20484;-72
2021/12/01 12:06:53;;;;;;;2.50;0.67;;;8.70;85.50;;;;;;5022107;28;20530;-71
2021/12/01 12:09:23;;;;;;;3.80;0.80;;;8.70;85.50;;;;;;5039046;28;20487;-71
2021/12/01 12:11:53;;;;;;;6.53;0.83;;;8.70;85.40;;;;;;5022044;28;20855;-71
2021/12/01 12:14:25;;;;;;;2.67;0.80;;;8.70;85.40;;;;;;5018826;28;20498;-71
2021/12/01 12:17:05;;;;;;;2.30;0.80;;;8.70;85.40;;;;;;5017967;28;21037;-71
2021/12/01 12:19:54;;;;;;;2.57;0.70;;;8.80;85.40;;;;;;5021685;28;20454;-71
2021/12/01 12:22:29;;;;;;;2.30;0.80;;;8.70;85.30;;;;;;5022945;28;20455;-71
2021/12/01 12:24:57;;;;;;;3.50;0.97;;;8.70;85.50;;;;;;5018999;28;20867;-71
2021/12/01 12:27:40;;;;;;;2.40;0.77;;;8.70;85.60;;;;;;5023155;28;21014;-69
2021/12/01 12:30:14;;;;;;;2.20;0.60;;;8.70;85.60;;;;;;5023989;28;20462;-70
2021/12/01 12:32:45;;;;;;;2.70;0.70;;;8.70;85.60;;;;;;5020597;28;20458;-72
2021/12/01 12:35:15;;;;;;;3.17;0.90;;;8.70;85.60;;;;;;5023447;28;20475;-72
2021/12/01 12:37:44;;;;;;;2.43;0.70;;;8.70;85.70;;;;;;5020635;28;20454;-70
2021/12/01 12:40:32;;;;;;;2.53;0.60;;;8.70;85.70;;;;;;5019569;28;20452;-71
2021/12/01 12:43:08;;;;;;;2.30;0.60;;;8.70;85.80;;;;;;5020322;28;20513;-71
2021/12/01 12:45:38;;;;;;;5.40;0.80;;;8.70;85.80;;;;;;5017803;28;20248;-70
2021/12/01 12:48:24;;;;;;;2.50;0.80;;;8.70;85.70;;;;;;5022577;28;20488;-71
2021/12/01 12:51:11;;;;;;;2.40;0.60;;;8.70;85.70;;;;;;5021721;28;20979;-70
2021/12/01 12:54:14;;;;;;;2.60;0.87;;;8.70;85.70;;;;;;5022187;28;20462;-72
2021/12/01 12:56:53;;;;;;;2.50;0.73;;;8.70;85.70;;;;;;5022641;28;20823;-72
2021/12/01 12:59:26;;;;;;;3.63;0.90;;;8.70;85.80;;;;;;5021399;28;20986;-72
2021/12/01 13:02:16;;;;;;;3.05;0.90;;;8.70;85.90;;;;;;5020755;28;21034;-72
2021/12/01 13:04:58;;;;;;;2.43;0.80;;;8.70;85.80;;;;;;5021682;28;20298;-69
2021/12/01 13:07:56;;;;;;;2.30;0.70;;;8.70;85.80;;;;;;5020612;28;20465;-72
2021/12/01 13:10:27;;;;;;;2.60;0.73;;;8.70;85.80;;;;;;5021218;28;20508;-72
2021/12/01 13:12:58;;;;;;;2.63;0.68;;;8.70;85.90;;;;;;5020973;28;20955;-69
2021/12/01 13:15:33;;;;;;;2.80;1.00;;;8.70;85.80;;;;;;5017016;28;20247;-70
2021/12/01 13:18:02;;;;;;;2.57;0.90;;;8.70;85.80;;;;;;5022426;28;20474;-73
2021/12/01 13:20:34;;;;;;;3.60;0.77;;;8.70;85.90;;;;;;5020021;28;20453;-71